createdAt,value
2023-03-05T00:01:33.571Z,2.98
2023-03-05T00:04:17.118Z,2.76
2023-03-05T00:07:00.730Z,2.94
2023-03-05T00:09:44.189Z,2.87
2023-03-05T00:12:28.113Z,2.84
2023-03-05T00:15:12.124Z,2.93
2023-03-05T00:17:55.551Z,2.74
2023-03-05T00:20:39.034Z,2.84
2023-03-05T00:23:22.493Z,2.49
2023-03-05T00:26:07.686Z,2.61
2023-03-05T00:28:52.530Z,2.31
2023-03-05T00:31:38.151Z,2.14
2023-03-05T00:34:22.650Z,2.26
2023-03-05T00:37:08.261Z,2.32
2023-03-05T00:39:51.725Z,2.02
2023-03-05T00:42:38.684Z,2.36
2023-03-05T00:45:22.353Z,2.31
2023-03-05T00:48:06.709Z,2.03
2023-03-05T00:50:50.457Z,2.04
2023-03-05T00:53:34.008Z,2.21
2023-03-05T00:56:17.557Z,2.14
2023-03-05T00:59:01.010Z,2.04
2023-03-05T01:01:44.639Z,2.30
2023-03-05T01:04:28.154Z,2.22
2023-03-05T01:07:11.754Z,1.98
2023-03-05T01:09:55.316Z,2.23
2023-03-05T01:12:39.951Z,2.40
2023-03-05T01:15:25.340Z,2.31
2023-03-05T01:18:09.003Z,2.34
2023-03-05T01:20:52.624Z,2.47
2023-03-05T01:23:37.511Z,2.42
2023-03-05T01:26:21.395Z,2.28
2023-03-05T01:29:05.236Z,2.29
2023-03-05T01:31:48.750Z,2.20
2023-03-05T01:34:32.357Z,1.98
2023-03-05T01:37:15.883Z,1.92
2023-03-05T01:39:59.481Z,2.10
2023-03-05T01:42:48.945Z,1.98
2023-03-05T01:45:32.829Z,2.02
2023-03-05T01:48:16.852Z,1.92
2023-03-05T01:51:00.373Z,1.97
2023-03-05T01:53:44.777Z,1.98
2023-03-05T01:56:31.013Z,1.76
2023-03-05T01:59:17.720Z,1.88
2023-03-05T02:02:01.710Z,1.70
2023-03-05T02:05:00.757Z,1.77
2023-03-05T02:07:45.277Z,1.73
2023-03-05T02:10:51.638Z,1.80
2023-03-05T02:13:40.928Z,1.55
2023-03-05T02:16:24.406Z,1.64
2023-03-05T02:19:12.540Z,1.61
2023-03-05T02:21:56.299Z,1.63
2023-03-05T02:24:40.055Z,1.59
2023-03-05T02:27:35.174Z,1.51
2023-03-05T02:30:19.768Z,1.52
2023-03-05T02:33:03.426Z,1.50
2023-03-05T02:35:47.084Z,1.49
2023-03-05T02:38:30.571Z,1.44
2023-03-05T02:41:14.638Z,1.49
2023-03-05T02:43:58.899Z,1.54
2023-03-05T02:46:42.756Z,1.47
2023-03-05T02:49:26.417Z,1.41
2023-03-05T02:52:09.941Z,1.59
2023-03-05T02:54:53.445Z,1.46
2023-03-05T02:57:37.016Z,1.44
2023-03-05T03:00:20.850Z,1.49
2023-03-05T03:03:04.459Z,1.38
2023-03-05T03:05:47.966Z,1.24
2023-03-05T03:08:31.378Z,1.41
2023-03-05T03:11:14.951Z,1.45
2023-03-05T03:14:00.699Z,1.43
2023-03-05T03:16:44.238Z,1.56
2023-03-05T03:19:27.820Z,1.36
2023-03-05T03:22:14.321Z,1.44
2023-03-05T03:24:57.747Z,1.41
2023-03-05T03:27:41.163Z,1.61
2023-03-05T03:30:24.604Z,1.54
2023-03-05T03:33:08.240Z,1.60
2023-03-05T03:35:51.792Z,1.42
2023-03-05T03:38:35.385Z,1.59
2023-03-05T03:41:19.900Z,1.56
2023-03-05T03:44:07.192Z,1.61
2023-03-05T03:46:51.638Z,1.67
2023-03-05T03:49:35.187Z,1.53
2023-03-05T03:52:18.606Z,1.25
2023-03-05T03:55:02.329Z,1.24
2023-03-05T03:57:46.134Z,1.28
2023-03-05T04:00:29.625Z,1.26
2023-03-05T04:03:13.068Z,1.37
2023-03-05T04:05:56.510Z,1.46
2023-03-05T04:08:40.131Z,1.58
2023-03-05T04:11:24.123Z,1.35
2023-03-05T04:14:07.617Z,1.44
2023-03-05T04:16:51.048Z,1.46
2023-03-05T04:19:34.596Z,1.38
2023-03-05T04:22:18.545Z,1.27
2023-03-05T04:25:06.447Z,1.27
2023-03-05T04:27:49.889Z,1.20
2023-03-05T04:30:33.851Z,1.33
2023-03-05T04:33:17.584Z,1.26
2023-03-05T04:36:24.481Z,1.06
2023-03-05T04:39:14.697Z,1.32
2023-03-05T04:41:58.379Z,1.22
2023-03-05T04:44:42.015Z,1.20
2023-03-05T04:47:25.495Z,1.28
2023-03-05T04:50:10.930Z,1.06
2023-03-05T04:52:54.837Z,1.13
2023-03-05T04:55:38.336Z,1.07
2023-03-05T04:58:23.244Z,1.09
2023-03-05T05:01:07.446Z,0.82
2023-03-05T05:03:50.960Z,0.93
2023-03-05T05:06:34.505Z,0.97
2023-03-05T05:09:18.196Z,1.00
2023-03-05T05:12:01.738Z,0.91
2023-03-05T05:14:45.309Z,0.99
2023-03-05T05:17:31.168Z,0.96
2023-03-05T05:20:17.086Z,0.97
2023-03-05T05:23:00.677Z,0.84
2023-03-05T05:25:44.380Z,0.83
2023-03-05T05:28:29.079Z,0.86
2023-03-05T05:31:15.995Z,0.60
2023-03-05T05:33:59.646Z,0.71
2023-03-05T05:36:43.125Z,0.79
2023-03-05T05:39:26.694Z,0.80
2023-03-05T05:42:10.304Z,0.74
2023-03-05T05:44:55.720Z,0.90
2023-03-05T05:47:39.316Z,0.86
2023-03-05T05:50:22.985Z,0.74
2023-03-05T05:53:06.459Z,0.83
2023-03-05T05:55:50.033Z,0.84
2023-03-05T05:58:33.834Z,0.75
2023-03-05T06:01:29.983Z,0.79
2023-03-05T06:04:13.521Z,0.80
2023-03-05T06:06:58.427Z,0.79
2023-03-05T06:09:41.960Z,0.89
2023-03-05T06:12:25.492Z,0.86
2023-03-05T06:15:09.797Z,0.99
2023-03-05T06:17:54.585Z,0.99
2023-03-05T06:20:38.135Z,0.92
2023-03-05T06:23:23.500Z,1.08
2023-03-05T06:26:10.885Z,1.00
2023-03-05T06:28:55.081Z,1.02
2023-03-05T06:31:39.561Z,1.29
2023-03-05T06:34:23.487Z,1.38
2023-03-05T06:37:07.319Z,1.33
2023-03-05T06:39:50.778Z,1.20
2023-03-05T06:42:35.299Z,1.25
2023-03-05T06:45:18.843Z,1.27
2023-03-05T06:48:02.379Z,1.26
2023-03-05T06:50:45.855Z,1.22
2023-03-05T06:53:29.531Z,1.44
2023-03-05T06:56:16.697Z,1.32
2023-03-05T06:59:00.282Z,1.39
2023-03-05T07:01:45.472Z,1.48
2023-03-05T07:04:28.945Z,1.52
2023-03-05T07:07:12.567Z,1.36
2023-03-05T07:09:56.071Z,1.50
2023-03-05T07:12:40.303Z,1.35
2023-03-05T07:15:24.837Z,1.39
2023-03-05T07:18:08.328Z,1.52
2023-03-05T07:20:51.803Z,1.60
2023-03-05T07:23:36.508Z,1.66
2023-03-05T07:26:20.564Z,1.60
2023-03-05T07:29:04.323Z,1.59
2023-03-05T07:31:47.828Z,1.66
2023-03-05T07:34:31.306Z,1.61
2023-03-05T07:37:14.998Z,1.60
2023-03-05T07:39:58.513Z,1.75
2023-03-05T07:42:42.217Z,1.58
2023-03-05T07:45:32.540Z,1.80
2023-03-05T07:48:20.970Z,1.59
2023-03-05T07:51:08.828Z,1.91
2023-03-05T07:53:59.292Z,1.87
2023-03-05T07:56:42.976Z,1.90
2023-03-05T07:59:26.549Z,1.89
2023-03-05T08:02:13.095Z,1.84
2023-03-05T08:04:56.626Z,1.83
2023-03-05T08:07:40.113Z,1.93
2023-03-05T08:10:23.783Z,1.98
2023-03-05T08:13:08.383Z,1.85
2023-03-05T08:15:51.936Z,1.93
2023-03-05T08:18:35.715Z,1.88
2023-03-05T08:21:29.652Z,2.01
2023-03-05T08:24:14.707Z,1.96
2023-03-05T08:26:59.135Z,2.15
2023-03-05T08:29:42.640Z,1.91
2023-03-05T08:32:26.120Z,2.01
2023-03-05T08:35:10.242Z,2.12
2023-03-05T08:37:53.925Z,2.40
2023-03-05T08:40:37.593Z,2.66
2023-03-05T08:43:21.225Z,2.66
2023-03-05T08:46:05.324Z,3.10
2023-03-05T08:48:51.468Z,3.00
2023-03-05T08:51:36.071Z,2.82
2023-03-05T08:54:19.868Z,2.92
2023-03-05T08:57:05.772Z,2.66
2023-03-05T08:59:49.265Z,2.78
2023-03-05T09:02:33.296Z,3.08
2023-03-05T09:05:16.900Z,2.70
2023-03-05T09:08:00.403Z,2.70
2023-03-05T09:10:45.850Z,2.86
2023-03-05T09:13:29.316Z,2.78
2023-03-05T09:16:16.929Z,2.88
2023-03-05T09:19:00.681Z,3.18
2023-03-05T09:21:44.510Z,3.70
2023-03-05T09:24:28.151Z,3.59
2023-03-05T09:27:11.590Z,3.30
2023-03-05T09:29:55.674Z,3.32
2023-03-05T09:32:39.399Z,3.04
2023-03-05T09:35:23.080Z,2.84
2023-03-05T09:38:06.585Z,2.83
2023-03-05T09:41:14.189Z,2.85
2023-03-05T09:44:18.072Z,2.70
2023-03-05T09:47:44.435Z,2.79
2023-03-05T09:50:51.138Z,2.69
2023-03-05T09:53:45.781Z,2.77
2023-03-05T09:56:42.926Z,2.73
2023-03-05T10:00:12.964Z,2.82
2023-03-05T10:03:05.105Z,2.99
2023-03-05T10:05:53.868Z,3.71
2023-03-05T10:08:57.837Z,3.67
2023-03-05T10:12:01.230Z,3.56
2023-03-05T10:14:44.731Z,3.57
2023-03-05T10:18:08.850Z,3.09
2023-03-05T10:22:02.087Z,3.12
2023-03-05T10:25:07.096Z,3.16
2023-03-05T10:28:05.870Z,2.91
2023-03-05T10:31:17.578Z,2.98
2023-03-05T10:34:22.545Z,2.87
2023-03-05T10:37:47.151Z,3.02
2023-03-05T10:40:48.016Z,3.14
2023-03-05T10:44:03.006Z,2.98
2023-03-05T10:46:49.388Z,2.49
2023-03-05T10:49:49.082Z,2.43
2023-03-05T10:52:51.878Z,2.55
2023-03-05T10:55:36.215Z,2.37
2023-03-05T10:58:19.785Z,2.38
2023-03-05T11:01:09.977Z,2.36
2023-03-05T11:04:08.261Z,2.16
2023-03-05T11:06:51.780Z,2.39
2023-03-05T11:09:35.331Z,2.31
2023-03-05T11:12:21.885Z,2.16
2023-03-05T11:15:27.636Z,2.34
2023-03-05T11:18:22.619Z,2.39
2023-03-05T11:21:28.267Z,2.14
2023-03-05T11:24:22.527Z,2.13
2023-03-05T11:27:36.815Z,2.38
2023-03-05T11:30:40.514Z,2.59
2023-03-05T11:33:25.167Z,2.46
2023-03-05T11:36:31.756Z,2.42
2023-03-05T11:39:19.626Z,2.51
2023-03-05T11:42:13.299Z,2.66
2023-03-05T11:44:57.635Z,2.51
2023-03-05T11:47:54.569Z,2.67
2023-03-05T11:50:41.234Z,2.61
2023-03-05T11:53:31.646Z,2.53
2023-03-05T11:56:25.391Z,2.58
2023-03-05T11:59:29.557Z,2.70
2023-03-05T12:02:23.403Z,2.73
2023-03-05T12:05:08.359Z,2.67
2023-03-05T12:08:02.148Z,2.87
2023-03-05T12:10:45.816Z,2.90
2023-03-05T12:13:34.218Z,2.72
2023-03-05T12:16:27.967Z,2.53
2023-03-05T12:19:35.778Z,2.44
2023-03-05T12:22:24.023Z,2.33
2023-03-05T12:25:53.475Z,2.02
2023-03-05T12:28:37.122Z,2.07
2023-03-05T12:31:39.610Z,2.24
2023-03-05T12:34:50.410Z,2.40
2023-03-05T12:37:33.796Z,2.78
2023-03-05T12:40:32.092Z,2.94
2023-03-05T12:43:32.851Z,2.87
2023-03-05T12:46:29.456Z,3.03
2023-03-05T12:49:19.251Z,3.21
2023-03-05T12:52:04.519Z,3.49
2023-03-05T12:55:16.104Z,3.48
2023-03-05T12:58:06.207Z,3.41
2023-03-05T13:01:15.613Z,3.45
2023-03-05T13:04:17.476Z,3.33
2023-03-05T13:07:14.061Z,3.12
2023-03-05T13:10:00.808Z,3.15
2023-03-05T13:12:55.427Z,3.37
2023-03-05T13:15:39.306Z,3.45
2023-03-05T13:18:33.172Z,3.11
2023-03-05T13:21:21.259Z,3.24
2023-03-05T13:24:15.176Z,3.46
2023-03-05T13:27:01.308Z,3.42
2023-03-05T13:29:53.717Z,3.43
2023-03-05T13:32:37.393Z,3.92
2023-03-05T13:35:21.305Z,3.34
2023-03-05T13:38:04.888Z,3.47
2023-03-05T13:41:18.138Z,3.45
2023-03-05T13:44:03.291Z,3.45
2023-03-05T13:46:48.231Z,3.34
2023-03-05T13:49:32.772Z,3.53
2023-03-05T13:52:33.969Z,3.37
2023-03-05T13:55:19.302Z,3.70
2023-03-05T13:58:03.373Z,3.45
2023-03-05T14:00:46.967Z,3.63
2023-03-05T14:03:30.868Z,3.39
2023-03-05T14:06:21.458Z,3.47
2023-03-05T14:09:24.103Z,3.50
2023-03-05T14:12:50.566Z,3.63
2023-03-05T14:15:36.017Z,3.96
2023-03-05T14:18:21.035Z,3.73
2023-03-05T14:21:12.585Z,3.47
2023-03-05T14:23:57.964Z,3.48
2023-03-05T14:26:56.551Z,3.23
2023-03-05T14:29:47.007Z,3.56
2023-03-05T14:32:37.321Z,3.51
2023-03-05T14:35:26.922Z,3.28
2023-03-05T14:38:34.216Z,3.01
2023-03-05T14:41:40.066Z,2.64
2023-03-05T14:44:25.847Z,2.67
2023-03-05T14:47:09.514Z,2.77
2023-03-05T14:49:54.093Z,2.56
2023-03-05T14:52:38.230Z,2.44
2023-03-05T14:55:27.652Z,2.46
2023-03-05T14:58:21.970Z,2.79
2023-03-05T15:01:05.974Z,2.90
2023-03-05T15:03:50.007Z,2.48
2023-03-05T15:06:38.184Z,2.80
2023-03-05T15:09:22.681Z,2.87
2023-03-05T15:12:07.285Z,2.68
2023-03-05T15:14:56.386Z,2.70
2023-03-05T15:17:51.748Z,2.83
2023-03-05T15:20:35.623Z,2.73
2023-03-05T15:23:22.775Z,3.22
2023-03-05T15:26:14.532Z,2.80
2023-03-05T15:29:01.692Z,2.97
2023-03-05T15:31:45.811Z,2.99
2023-03-05T15:34:40.128Z,2.67
2023-03-05T15:37:24.427Z,2.64
2023-03-05T15:40:09.712Z,2.78
2023-03-05T15:42:55.026Z,2.72
2023-03-05T15:45:38.620Z,2.80
2023-03-05T15:48:22.269Z,2.78
2023-03-05T15:51:08.899Z,2.68
2023-03-05T15:53:52.643Z,2.69
2023-03-05T15:56:36.230Z,2.80
2023-03-05T15:59:20.989Z,2.75
2023-03-05T16:02:05.963Z,2.85
2023-03-05T16:04:49.484Z,2.81
2023-03-05T16:07:37.310Z,2.65
2023-03-05T16:10:25.786Z,2.54
2023-03-05T16:13:15.947Z,2.38
2023-03-05T16:16:00.924Z,2.32
2023-03-05T16:18:47.981Z,2.43
2023-03-05T16:21:32.270Z,2.31
2023-03-05T16:24:15.927Z,2.37
2023-03-05T16:26:59.569Z,2.37
2023-03-05T16:29:43.540Z,2.28
2023-03-05T16:32:27.112Z,2.17
2023-03-05T16:35:12.500Z,2.31
2023-03-05T19:47:52.529Z,2.42
2023-03-05T19:50:40.703Z,2.17
2023-03-05T19:53:38.325Z,2.28
2023-03-05T19:56:35.010Z,2.41
2023-03-05T19:59:31.503Z,1.97
2023-03-05T20:02:23.155Z,2.32
2023-03-05T20:05:30.342Z,2.78
2023-03-05T20:08:21.654Z,2.53
2023-03-05T20:11:15.676Z,2.56
2023-03-05T20:14:08.762Z,2.52
2023-03-05T20:16:57.387Z,2.48
2023-03-05T20:19:44.076Z,2.31
2023-03-05T20:22:33.120Z,2.38
2023-03-05T20:28:50.816Z,2.38
2023-03-05T20:31:44.998Z,2.57
2023-03-05T20:34:33.552Z,2.52
2023-03-05T20:40:35.813Z,2.36
2023-03-05T20:43:33.458Z,2.15
2023-03-05T20:46:31.980Z,2.22
2023-03-05T20:49:22.305Z,2.27
2023-03-05T20:52:08.380Z,2.24
2023-03-05T20:55:00.435Z,2.45
2023-03-05T20:57:55.589Z,2.26
2023-03-05T21:00:42.961Z,2.44
2023-03-05T21:03:28.914Z,2.31
2023-03-05T21:06:23.779Z,2.07
2023-03-05T21:09:15.380Z,2.23
2023-03-05T21:12:03.019Z,2.19
2023-03-05T21:14:50.869Z,2.27
2023-03-05T21:17:37.770Z,2.29
2023-03-05T21:20:32.180Z,2.45
2023-03-05T21:23:21.703Z,2.38
2023-03-05T21:26:07.878Z,2.34
2023-03-05T21:28:54.827Z,2.22
2023-03-05T21:31:44.746Z,2.60
2023-03-05T21:34:31.831Z,2.18
2023-03-05T21:37:24.744Z,2.39
2023-03-05T21:40:20.193Z,2.50
2023-03-05T21:43:28.379Z,2.45
2023-03-05T21:46:19.101Z,2.60
2023-03-05T21:49:16.632Z,2.31
2023-03-05T21:52:15.662Z,2.08
2023-03-05T21:58:28.802Z,2.14
2023-03-05T22:05:11.824Z,2.22
2023-03-05T22:26:23.598Z,2.65
2023-03-05T22:29:50.229Z,2.34
2023-03-05T22:33:11.414Z,2.79
2023-03-05T22:36:51.121Z,2.50
2023-03-05T22:44:25.008Z,2.28
2023-03-05T23:02:41.952Z,2.54
2023-03-05T23:10:34.203Z,2.56
2023-03-05T23:21:00.068Z,2.51
2023-03-05T23:24:35.900Z,2.53
2023-03-05T23:31:01.790Z,2.40
2023-03-05T23:34:20.980Z,2.34
2023-03-05T23:37:40.447Z,2.35
2023-03-05T23:44:09.820Z,2.68
2023-03-05T23:47:17.763Z,2.53
2023-03-05T23:50:41.573Z,2.57
2023-03-05T23:54:17.171Z,2.34
2023-03-05T23:57:21.968Z,2.26
